Airfield :
LOGIN :

Register | Disclaimer

   EN    FR    IT 

 










Legend :    VFR   Marginal VFR   IFR   Intensive IFR   Very Intensive IFR
Visi :
Ceiling :
>= 8 km
>= 3000ft
5 to 8 km
1000 to 3000 ft
1500m to 5 km
500 to 1000 ft
800 to 1500m
200 to 500 ft
< 800m
< 200 ft
Symbols :   Thunderstorms  Fog  Heavy snow  Heavy precipitations  Wind > 20 kt
SIGMETs :     Misc.  Thunderstorms  Icing  Turbulence  Mountain Waves  Volcanic Ashes






- Airport Elevation : 410 ft
- IATA code : AVB


LIPA - Aviano AB Pordenone

CURRENT METAR :
  • 191555Z 22003KT 9999 BKN040 13/03 Q1016 RMK BKN VIS MIN 9999 WIND THR05 /////KT WIND THR23 /////KT A3002 BLU

EXPIRED METARs :
  • 191455Z 15005KT 9999 SCT040 14/02 Q1016 RMK SCT VIS MIN 9999 WIND THR05 /////KT WIND THR23 /////KT A3002 BLU
  • 191355Z 18004KT 9999 FEW050 14/01 Q1016 RMK FEW VIS MIN 9999 WIND THR05 /////KT WIND THR23 /////KT A3002 BLU

TAF TAF LIPA
Valid from the 19 at 15:00 until the 20 at 00:00 UTC


191400Z 1915/1924 08003KT 9999 SCT050



MET'MAP, your aeronautical weather chart ! - Copyright ORBIFLY December 2007 - Disclaimer

ORBIFLY MET'MAP TEAM :

Programming & Development : Alexandra Zaïnal
Concept & original design : Baudouin d'Aumeries
Assistance for programming : Marc-Olivier Méhu
Technical & hardware support : Manuel Goepfert

Contact : metmap@orbifly.com




SOURCES & CREDITS :

   NOAA